Terminal Aerodrome Forecast
Issued by NWS

Current Version | Previous Version | Graphics & Text | Print | Product List | Glossary On
Versions: 1 2 3 4 5 6 7 8 9 10 11 12 13 14 15 16 17 18 19 20 21 22 23 24 25 26
904
FTUS41 KILN 282020 AAC
TAFLUK
TAF AMD
KLUK 282020Z 2820/2918 24008KT P6SM VCTS BKN040CB
      TEMPO 2820/2822 VRB22G30KT 3SM TSRA BR OVC028CB
     FM282200 27007KT P6SM SCT060
     FM290400 28003KT 4SM BR SCT040
     FM290800 VRB02KT 1SM BR OVC003
     FM291300 32006KT 3SM BR BKN008
     FM291500 30007KT P6SM BKN025
     FM291700 29008KT P6SM BKN035=

USA.gov is the U.S. government's official web portal to all federal, state and local government web resources and services.